• Join FlightAware (Why Join?)
  • Login
  • US Flag 
02:25AM EDT


 

Airport Tracker/Info


-or-


 

Live Flight TrackerFlight Track Log ✈ N523JM ✈ 22-Nov-2013 ✈ KOSU - KRSW

Flight Track Log - Related Links

Times and Time Zones

All times are in EST time to prevent confusion due to time zone crossing. See the N523JM flight status page for this flight to view local times or setup timezone preferences in your user account.

Time Position Orientation Groundspeed Altitude Reporting Facility
EST Latitude Longitude Course Direction KTS MPH feet Rate Location/Type
11:30AM 40.0769 -83.0942 177° South 174 200 1,400  Level Indianapolis Center
11:31AM 40.0675 -83.1647 260° West 234 269 3,600 2,760 Climbing Indianapolis Center
11:31AM 40.0481 -83.1769 206° Southwest 257 296 4,800 2,880 Climbing Indianapolis Center
11:32AM 40.0006 -83.1606 165° South 258 297 6,600 2,400 Climbing Indianapolis Center
11:33AM 39.9256 -83.1164 156° South 289 333 9,100 2,820 Climbing Indianapolis Center
11:34AM 39.8594 -83.0461 141° Southeast 302 348 12,500 2,760 Climbing Indianapolis Center
11:35AM 39.7953 -82.9756 140° Southeast 301 346 14,900 2,160 Climbing Indianapolis Center
11:36AM 39.4345 -82.9997 177° South  Level Estimated
11:36AM 39.7275 -82.8994 139° Southeast 317 365 17,000  Level Indianapolis Center
11:37AM 39.6533 -82.8197 140° Southeast 342 394 19,000 2,220 Climbing Indianapolis Center
11:38AM 39.5453 -82.7944 170° South 326 375 21,600 1,980 Climbing Indianapolis Center
11:39AM 39.4506 -82.7753 171° South 341 392 23,200 1,500 Climbing Indianapolis Center
11:40AM 39.3494 -82.7533 170° South 364 419 24,800 1,500 Climbing Indianapolis Center
11:41AM 39.2431 -82.7328 171° South 382 440 26,300 1,440 Climbing Indianapolis Center
11:42AM 39.1436 -82.7106 170° South 384 442 27,800 1,500 Climbing Indianapolis Center
11:43AM 39.0136 -82.6847 171° South 392 451 29,400 1,200 Climbing Indianapolis Center
11:44AM 38.9022 -82.6631 171° South 402 463 30,400 960 Climbing Indianapolis Center
11:45AM 38.7883 -82.6403 171° South 412 474 31,500 1,080 Climbing Indianapolis Center
11:46AM 38.6753 -82.6178 171° South 412 474 32,700 1,200 Climbing Indianapolis Center
11:48AM 38.5547 -82.5947 171° South 409 471 34,100 1,200 Climbing Indianapolis Center
11:49AM 38.4456 -82.5722 171° South 399 459 35,300 900 Climbing Indianapolis Center
11:50AM 38.3397 -82.5522 172° South 386 444 36,000 300 Climbing Indianapolis Center
11:51AM 38.2106 -82.5278 172° South 400 460 36,000  Level Indianapolis Center
11:52AM 38.0931 -82.5028 170° South 423 487 36,000  Level Indianapolis Center
11:53AM 37.9706 -82.4797 172° South 440 506 36,000  Level Indianapolis Center
11:54AM 37.8442 -82.4536 171° South 455 524 36,000  Level Indianapolis Center
11:55AM 37.7144 -82.4289 171° South 467 537 36,000  Level Indianapolis Center
11:56AM 37.5836 -82.4036 171° South 472 543 36,000  Level Indianapolis Center
11:57AM 37.4303 -82.3750 172° South 474 545 36,000  Level Indianapolis Center
11:58AM 37.2972 -82.3489 171° South 479 551 36,000  Level Indianapolis Center
11:59AM 37.1636 -82.3231 171° South 481 554 36,000  Level Indianapolis Center
12:00PM 37.0303 -82.2972 171° South 479 551 36,000  Level Indianapolis Center
12:01PM 36.8975 -82.2731 172° South 479 551 36,000  Level Indianapolis Center
12:02PM 36.7642 -82.2472 171° South 478 550 36,000  Level Indianapolis Center
12:03PM 36.6303 -82.2231 172° South 481 554 36,000  Level Indianapolis Center
12:04PM 36.4972 -82.1972 171° South 481 554 36,000  Level Indianapolis Center
12:05PM 36.3411 -82.1683 172° South 482 555 36,000  Level Indianapolis Center
12:06PM 36.2061 -82.1431 171° South 486 559 36,000  Level Indianapolis Center
12:07PM 36.0717 -82.1183 172° South 485 558 36,000  Level Indianapolis Center
12:08PM 35.9072 -82.0903 172° South 484 557 36,000  Level Atlanta Center
12:09PM 35.7711 -82.0656 172° South 489 563 36,000  Level Atlanta Center
12:10PM 35.6394 -82.0406 171° South 489 563 36,000  Level Atlanta Center
12:11PM 35.5033 -82.0183 172° South 489 563 36,000  Level Atlanta Center
12:12PM 35.3675 -81.9911 171° South 489 563 36,000  Level Atlanta Center
12:13PM 35.2314 -81.9689 172° South 489 563 36,000  Level Atlanta Center
12:14PM 35.0975 -81.9444 172° South 489 563 36,000  Level Atlanta Center
12:15PM 34.9597 -81.9403 179° South 489 563 36,000  Level Atlanta Center
12:16PM 34.8181 -81.9667 189° South 471 542 36,000  Level Atlanta Center
12:17PM 34.6872 -81.9900 188° South 478 550 36,000  Level Atlanta Center
12:18PM 34.5581 -82.0133 188° South 478 550 36,000  Level Atlanta Center
12:19PM 34.4333 -82.0367 189° South 478 550 36,000  Level Atlanta Center
12:20PM 34.3064 -82.0572 188° South 473 544 36,000  Level Atlanta Center
12:21PM 34.1772 -82.0803 188° South 468 539 36,000  Level Atlanta Center
12:22PM 34.0483 -82.1033 188° South 468 539 36,000  Level Atlanta Center
12:23PM 33.9192 -82.1236 187° South 468 539 36,000  Level Atlanta Center
12:24PM 33.7881 -82.1442 187° South 473 544 36,000  Level Atlanta Center
12:25PM 33.6528 -82.1672 188° South 484 557 36,000  Level Atlanta Center
12:26PM 33.5217 -82.1925 189° South 484 557 36,000  Level Atlanta Center
12:27PM 33.3903 -82.2128 187° South 484 557 36,000  Level Atlanta Center
12:28PM 33.2592 -82.2353 188° South 484 557 36,000  Level Atlanta Center
12:29PM 33.1258 -82.2578 186° South 484 557 36,000  Level Atlanta Center
12:30PM 33.1310 -82.2522 186° South  Level FlightAware Approximate
12:30PM 32.9925 -82.2781 187° South 484 557 36,000  Level Atlanta Center
12:31PM 32.8614 -82.2978 187° South 484 557 36,000  Level Atlanta Center
12:32PM 32.7303 -82.3228 189° South 484 557 36,000  Level Atlanta Center
12:34PM 32.4931 -82.3581 187° South 482 555 36,000  Level Jacksonville Center
12:35PM 32.3764 -82.3761 187° South 482 555 36,000  Level Jacksonville Center
12:36PM 32.2406 -82.3867 184° South 482 555 36,000  Level Jacksonville Center
12:37PM 32.1092 -82.3800 178° South 482 555 36,000  Level Jacksonville Center
12:38PM 31.9733 -82.3733 178° South 477 549 36,000  Level Jacksonville Center
12:39PM 31.8378 -82.3644 177° South 477 549 36,000  Level Jacksonville Center
12:40PM 31.7061 -82.3603 178° South 482 555 36,000  Level Jacksonville Center
12:41PM 31.5725 -82.3536 178° South 482 555 36,000  Level Jacksonville Center
12:42PM 31.4347 -82.3472 178° South 482 555 36,000  Level Jacksonville Center
12:43PM 31.2864 -82.3456 179° South 482 555 36,000  Level Jacksonville Center
12:44PM 31.1506 -82.3392 178° South 482 555 36,000  Level Jacksonville Center
12:45PM 31.0169 -82.3325 178° South 482 555 36,000  Level Jacksonville Center
12:46PM 30.8811 -82.3286 179° South 477 549 36,000  Level Jacksonville Center
12:47PM 30.7456 -82.3222 178° South 482 555 36,000  Level Jacksonville Center
12:48PM 30.6097 -82.3156 178° South 487 560 36,000  Level Jacksonville Center
12:49PM 30.4781 -82.3044 176° South 487 560 36,000  Level Jacksonville Center
12:50PM 30.3403 -82.2981 178° South 494 568 36,000  Level Jacksonville Center
12:51PM 30.2067 -82.2822 174° South 494 568 36,000  Level Jacksonville Center
12:52PM 30.0728 -82.2397 165° South 493 567 36,000 -240 Level Jacksonville Center
12:53PM 29.9558 -82.2117 168° South 482 555 35,600 -540 Descending Jacksonville Center
12:54PM 29.8303 -82.1767 166° South 477 549 35,000 -300 Descending Jacksonville Center
12:55PM 29.6942 -82.1297 163° South 467 537 35,000  Level Jacksonville Center
12:56PM 29.5667 -82.0950 167° South 467 537 35,000  Level Jacksonville Center
12:57PM 29.4392 -82.0581 166° South 467 537 35,000  Level Jacksonville Center
12:58PM 29.3242 -82.0303 168° South 467 537 35,000 -480 Level Jacksonville Center
01:00PM 29.0758 -81.9564 165° South 460 529 33,700 -900 Descending Miami Center
01:01PM 28.9436 -81.9172 165° South 472 543 32,500 -1,200 Descending Miami Center
01:02PM 28.8156 -81.8853 168° South 477 549 31,300 -1,560 Descending Miami Center
01:03PM 28.6917 -81.8489 166° South 472 543 29,400 -2,100 Descending Miami Center
01:04PM 28.5739 -81.8131 165° South 454 522 27,100 -1,200 Descending Miami Center
01:05PM 28.4625 -81.7819 166° South 438 504 27,000 -120 Descending Miami Center
01:06PM 28.3364 -81.7481 167° South 426 490 26,900 -540 Descending Miami Center
01:07PM 28.2414 -81.7206 166° South 414 476 26,000 -1,080 Descending Miami Center
01:08PM 28.1358 -81.6900 166° South 402 463 24,800 -1,080 Descending Miami Center
01:09PM 28.0322 -81.6739 172° South 390 449 23,900 -1,140 Descending Miami Center
01:10PM 27.9331 -81.7025 194° South 369 425 22,600 -1,440 Descending Miami Center
01:11PM 27.8383 -81.7314 195° South 369 425 21,100 -1,440 Descending Miami Center
01:12PM 27.7478 -81.7556 193° South 345 397 19,800 -1,200 Descending Miami Center
01:13PM 27.6556 -81.7658 186° South 340 391 18,700 -1,140 Descending Miami Center
01:14PM 27.5519 -81.7450 170° South 334 384 17,600 -1,080 Descending Miami Center
01:15PM 27.4758 -81.7089 157° South 334 384 16,600 -1,200 Descending Miami Center
01:16PM 27.3897 -81.6633 155° Southeast 339 390 15,300 -1,320 Descending Miami Center
01:17PM 27.3014 -81.6244 159° South 344 396 14,000 -1,440 Descending Miami Center
01:18PM 27.2192 -81.5839 156° South 344 396 12,500 -1,500 Descending Miami Center
01:19PM 27.1347 -81.5453 158° South 334 384 11,100 -1,260 Descending Miami Center
01:20PM 27.0586 -81.5097 157° South 322 371 10,000 -600 Descending Miami Center
01:21PM 26.9744 -81.4667 155° Southeast 307 353 10,000 -540 Level Miami Center
01:22PM 26.9006 -81.4289 155° Southeast 297 342 9,000 -1,080 Descending Miami Center
01:23PM 26.8306 -81.3936 156° South 288 331 7,900 -1,080 Descending Miami Center
01:24PM 26.7536 -81.3906 178° South 278 320 6,900 -1,080 Descending Miami Center
01:25PM 26.6739 -81.3992 186° South 283 326 5,800 -1,140 Descending Miami Center
01:27PM 26.5189 -81.3994 193° South  Level FlightAware Approximate
01:34PM 26.5333 -81.7500 318° Northwest  Level FlightAware Approximate
01:35PM 26.5362 -81.7552 318° Northwest  Level Estimated
01:36PM 26.5333 -81.7500 318° Northwest  Level FlightAware Approximate
01:37PM 26.5362 -81.7552 318° Northwest  Level Estimated
01:38PM 26.5333 -81.7500 318° Northwest  Level FlightAware Approximate
01:39PM 26.5362 -81.7552 318° Northwest  Level Estimated
01:40PM 26.5333 -81.7500 318° Northwest  Level FlightAware Approximate
01:41PM 26.5362 -81.7552 318° Northwest  Level Estimated
01:42PM 26.5333 -81.7500 318° Northwest  Level FlightAware Approximate
01:43PM 26.5362 -81.7552 318° Northwest  Level Estimated
01:44PM 26.5333 -81.7500 318° Northwest  Level FlightAware Approximate
01:45PM 26.5362 -81.7552 318° Northwest  Level Estimated
01:46PM 26.5333 -81.7500 318° Northwest  Level FlightAware Approximate
01:47PM 26.5362 -81.7552 318° Northwest  Level Estimated